Humaita, Brazil
Current Conditions -  °F | °C
As of 4:00 PM on Friday 21 Nov 2014 (Local Time) from SBPV Reporting Station
Scattered Clouds Scattered Clouds  
Wind Chill: 82°   Ceiling: Unl
Heat Index: 85°   Visibility: 6mi
Dew Point: 68°   Wind: 2mph
Humidity: 62%   Direction: 230°SW
Pressure: 29.74"   Gusts: NA
Location:  7.51°S, 63.03°W
Report Text: SBPV 212000Z 23002KT 9999 SCT020 FEW023TCU 28/20 Q1007
Loading
Personal Weather Stations






























Interactive Weather Map New forecast layout! Learn more

10-Day Weather Forecast

Advertisements
Track Severe Weather on mobile